createdAt,value
2018-04-27T00:00:57.137Z,72.01
2018-04-27T00:01:57.072Z,71.91
2018-04-27T00:02:57.008Z,72.11
2018-04-27T00:03:56.944Z,72.01
2018-04-27T00:04:56.879Z,72.01
2018-04-27T00:05:56.820Z,71.53
2018-04-27T00:06:56.751Z,71.34
2018-04-27T00:07:56.688Z,71.34
2018-04-27T00:08:56.624Z,71.63
2018-04-27T00:09:56.557Z,71.82
2018-04-27T00:10:56.495Z,72.01
2018-04-27T00:11:56.428Z,72.20
2018-04-27T00:12:56.367Z,72.30
2018-04-27T00:13:56.301Z,72.01
2018-04-27T00:14:56.236Z,72.30
2018-04-27T00:15:56.171Z,72.30
2018-04-27T00:16:56.108Z,72.20
2018-04-27T00:17:56.044Z,72.30
2018-04-27T00:18:55.977Z,72.30
2018-04-27T00:19:55.914Z,73.15
2018-04-27T00:20:55.849Z,73.06
2018-04-27T00:21:55.783Z,72.96
2018-04-27T00:22:55.717Z,73.06
2018-04-27T00:23:55.654Z,73.34
2018-04-27T00:24:55.594Z,72.96
2018-04-27T00:25:55.524Z,73.53
2018-04-27T00:26:55.469Z,73.63
2018-04-27T00:27:55.396Z,73.30
2018-04-27T00:28:55.331Z,73.97
2018-04-27T00:29:55.266Z,73.69
2018-04-27T00:30:55.205Z,73.78
2018-04-27T00:31:55.138Z,74.16
2018-04-27T00:32:55.071Z,74.26
2018-04-27T00:33:55.010Z,74.82
2018-04-27T00:34:54.945Z,75.02
2018-04-27T00:35:54.881Z,75.59
2018-04-27T00:36:54.819Z,75.49
2018-04-27T00:37:54.750Z,76.44
2018-04-27T00:38:54.685Z,76.06
2018-04-27T00:39:54.621Z,76.54
2018-04-27T00:40:54.558Z,76.63
2018-04-27T00:41:54.493Z,76.54
2018-04-27T00:42:54.428Z,76.63
2018-04-27T00:43:54.364Z,76.82
2018-04-27T00:44:54.298Z,76.35
2018-04-27T00:45:54.233Z,76.73
2018-04-27T00:46:54.170Z,76.73
2018-04-27T00:47:54.104Z,76.54
2018-04-27T00:48:54.045Z,76.06
2018-04-27T00:49:53.975Z,76.73
2018-04-27T00:50:53.913Z,76.54
2018-04-27T00:51:53.847Z,75.68
2018-04-27T00:52:53.780Z,75.21
2018-04-27T00:53:53.715Z,75.96
2018-04-27T00:54:53.653Z,74.82
2018-04-27T00:55:53.583Z,75.30
2018-04-27T00:56:53.523Z,75.78
2018-04-27T00:57:53.464Z,76.25
2018-04-27T00:58:53.395Z,75.87
2018-04-27T00:59:53.328Z,75.59
2018-04-27T01:00:53.264Z,75.78
2018-04-27T01:01:53.197Z,75.59
2018-04-27T01:02:53.135Z,75.02
2018-04-27T01:03:53.071Z,75.40
2018-04-27T01:04:53.005Z,75.87
2018-04-27T01:05:52.940Z,75.96
2018-04-27T01:06:52.880Z,75.84
2018-04-27T01:07:52.811Z,76.44
2018-04-27T01:08:52.747Z,75.93
2018-04-27T01:09:52.678Z,76.50
2018-04-27T01:10:52.616Z,76.21
2018-04-27T01:11:52.554Z,75.26
2018-04-27T01:12:52.485Z,74.88
2018-04-27T01:13:52.424Z,74.73
2018-04-27T01:14:52.358Z,74.16
2018-04-27T01:15:52.294Z,73.88
2018-04-27T01:16:52.230Z,74.07
2018-04-27T01:17:52.163Z,74.73
2018-04-27T01:18:52.098Z,74.44
2018-04-27T01:19:52.034Z,74.88
2018-04-27T01:20:51.967Z,74.82
2018-04-27T01:21:51.902Z,75.45
2018-04-27T01:22:51.838Z,74.79
2018-04-27T01:23:51.774Z,74.79
2018-04-27T01:24:51.710Z,75.55
2018-04-27T01:25:51.643Z,76.40
2018-04-27T01:26:51.581Z,76.12
2018-04-27T01:27:51.515Z,75.84
2018-04-27T01:28:51.451Z,75.36
2018-04-27T01:29:51.382Z,75.74
2018-04-27T01:30:51.317Z,75.93
2018-04-27T01:31:51.253Z,76.31
2018-04-27T01:32:51.187Z,75.93
2018-04-27T01:33:51.127Z,75.84
2018-04-27T01:34:51.058Z,75.26
2018-04-27T01:35:50.992Z,75.55
2018-04-27T01:36:50.935Z,75.26
2018-04-27T01:37:50.865Z,76.31
2018-04-27T01:38:50.797Z,75.84
2018-04-27T01:39:50.735Z,76.69
2018-04-27T01:40:50.667Z,76.31
2018-04-27T01:41:50.601Z,76.40
2018-04-27T01:42:50.539Z,76.50
2018-04-27T01:43:50.474Z,75.74
2018-04-27T01:44:50.409Z,76.21
2018-04-27T01:45:50.343Z,76.40
2018-04-27T01:46:50.281Z,76.59
2018-04-27T01:47:50.213Z,76.88
2018-04-27T01:48:50.148Z,76.78
2018-04-27T01:49:50.081Z,76.31
2018-04-27T01:50:50.019Z,77.07
2018-04-27T01:51:49.953Z,77.17
2018-04-27T01:52:49.888Z,77.26
2018-04-27T01:53:49.823Z,77.03
2018-04-27T01:54:49.757Z,78.27
2018-04-27T01:55:49.695Z,77.98
2018-04-27T01:56:49.626Z,78.08
2018-04-27T01:57:49.563Z,77.79
2018-04-27T01:58:49.503Z,78.08
2018-04-27T01:59:49.435Z,77.98
2018-04-27T02:00:49.370Z,78.08
2018-04-27T02:01:49.303Z,78.17
2018-04-27T02:02:49.235Z,78.17
2018-04-27T02:03:49.171Z,78.27
2018-04-27T02:04:49.106Z,78.27
2018-04-27T02:05:49.043Z,78.08
2018-04-27T02:06:48.977Z,78.17
2018-04-27T02:07:48.918Z,77.98
2018-04-27T02:08:48.844Z,78.08
2018-04-27T02:09:48.783Z,77.98
2018-04-27T02:10:48.715Z,78.08
2018-04-27T02:11:48.651Z,78.08
2018-04-27T02:12:48.585Z,78.08
2018-04-27T02:13:48.519Z,78.36
2018-04-27T02:14:48.456Z,78.17
2018-04-27T02:15:48.393Z,78.17
2018-04-27T02:16:48.322Z,77.89
2018-04-27T02:17:48.258Z,78.27
2018-04-27T02:18:48.193Z,78.17
2018-04-27T02:19:48.129Z,78.55
2018-04-27T02:20:48.064Z,78.74
2018-04-27T02:21:47.999Z,78.64
2018-04-27T02:22:47.933Z,79.03
2018-04-27T02:23:47.866Z,79.88
2018-04-27T02:24:47.800Z,80.26
2018-04-27T02:25:47.737Z,80.26
2018-04-27T02:26:47.671Z,79.88
2018-04-27T02:27:47.605Z,80.07
2018-04-27T02:28:47.541Z,80.45
2018-04-27T02:29:47.475Z,80.16
2018-04-27T02:30:47.421Z,80.07
2018-04-27T02:31:47.346Z,80.26
2018-04-27T02:32:47.278Z,80.64
2018-04-27T02:33:47.214Z,80.07
2018-04-27T02:34:47.152Z,79.88
2018-04-27T02:35:47.082Z,79.69
2018-04-27T02:36:47.018Z,79.79
2018-04-27T02:37:46.950Z,80.45
2018-04-27T02:38:46.884Z,80.16
2018-04-27T02:39:46.821Z,80.55
2018-04-27T02:40:46.753Z,80.26
2018-04-27T02:41:46.692Z,79.69
2018-04-27T02:42:46.623Z,79.88
2018-04-27T02:43:46.563Z,79.88
2018-04-27T02:44:46.492Z,80.07
2018-04-27T02:45:46.427Z,79.79
2018-04-27T02:46:46.361Z,80.16
2018-04-27T02:47:46.301Z,80.83
2018-04-27T02:48:46.232Z,80.93
2018-04-27T02:49:46.167Z,80.83
2018-04-27T02:50:46.100Z,80.83
2018-04-27T02:51:46.036Z,80.16
2018-04-27T02:52:45.970Z,80.16
2018-04-27T02:53:45.905Z,80.83
2018-04-27T02:54:45.839Z,81.02
2018-04-27T02:55:45.775Z,80.45
2018-04-27T02:56:45.709Z,80.45
2018-04-27T02:57:45.643Z,80.74
2018-04-27T02:58:45.577Z,80.74
2018-04-27T02:59:45.518Z,81.21
2018-04-27T03:00:45.446Z,81.49
2018-04-27T03:01:45.381Z,81.02
2018-04-27T03:02:45.317Z,81.02
2018-04-27T03:03:45.251Z,81.12
2018-04-27T03:04:45.186Z,81.12
2018-04-27T03:05:45.123Z,81.40
2018-04-27T03:06:45.056Z,81.68
2018-04-27T03:07:44.990Z,81.30
2018-04-27T03:08:44.925Z,81.49
2018-04-27T03:09:44.859Z,81.40
2018-04-27T03:10:44.793Z,82.35
2018-04-27T03:11:44.726Z,82.35
2018-04-27T03:12:44.662Z,82.54
2018-04-27T03:13:44.597Z,82.26
2018-04-27T03:14:44.530Z,82.73
2018-04-27T03:15:44.467Z,82.16
2018-04-27T03:16:44.399Z,82.35
2018-04-27T03:17:44.332Z,82.26
2018-04-27T03:18:44.268Z,81.59
2018-04-27T03:19:44.203Z,82.35
2018-04-27T03:20:44.142Z,82.35
2018-04-27T03:21:44.072Z,82.82
2018-04-27T03:22:44.006Z,82.45
2018-04-27T03:23:43.960Z,82.45
2018-04-27T03:24:43.877Z,82.64
2018-04-27T03:25:43.810Z,82.97
2018-04-27T03:26:43.745Z,82.97
2018-04-27T03:27:43.682Z,82.92
2018-04-27T03:28:43.615Z,82.45
2018-04-27T03:29:43.547Z,81.97
2018-04-27T03:30:43.482Z,81.78
2018-04-27T03:31:43.417Z,81.87
2018-04-27T03:32:43.351Z,81.59
2018-04-27T03:33:43.287Z,81.78
2018-04-27T03:34:43.222Z,81.21
2018-04-27T03:35:43.156Z,81.12
2018-04-27T03:36:43.095Z,81.21
2018-04-27T03:37:43.024Z,81.59
2018-04-27T03:38:42.959Z,80.93
2018-04-27T03:39:42.895Z,81.30
2018-04-27T03:40:42.825Z,80.64
2018-04-27T03:41:42.762Z,80.83
2018-04-27T03:42:42.702Z,81.02
2018-04-27T03:43:42.632Z,80.35
2018-04-27T03:44:42.566Z,80.16
2018-04-27T03:45:42.504Z,80.16
2018-04-27T03:46:42.435Z,81.30
2018-04-27T03:47:42.369Z,81.68
2018-04-27T03:48:42.305Z,81.78
2018-04-27T03:49:42.237Z,81.30
2018-04-27T03:50:42.176Z,81.68
2018-04-27T03:51:42.108Z,81.30
2018-04-27T03:52:42.042Z,81.68
2018-04-27T03:53:41.976Z,81.87
2018-04-27T03:54:41.910Z,81.87
2018-04-27T03:55:41.843Z,81.78
2018-04-27T03:56:41.778Z,81.30
2018-04-27T03:57:41.715Z,81.30
2018-04-27T03:58:41.649Z,80.74
2018-04-27T03:59:41.584Z,81.12
2018-04-27T04:00:41.528Z,81.12
2018-04-27T04:01:41.452Z,81.78
2018-04-27T04:02:41.387Z,81.68
2018-04-27T04:03:41.325Z,81.87
2018-04-27T04:04:41.255Z,81.59
2018-04-27T04:05:41.188Z,81.40
2018-04-27T04:06:41.130Z,81.68
2018-04-27T04:07:41.059Z,82.35
2018-04-27T04:08:40.992Z,82.35
2018-04-27T04:09:40.929Z,82.54
2018-04-27T04:10:40.862Z,82.78
2018-04-27T04:11:40.797Z,82.73
2018-04-27T04:12:40.730Z,82.40
2018-04-27T04:13:40.715Z,82.88
2018-04-27T04:14:40.601Z,83.16
2018-04-27T04:15:40.536Z,82.45
2018-04-27T04:16:40.469Z,82.64
2018-04-27T04:17:40.403Z,82.82
2018-04-27T04:18:40.337Z,82.40
2018-04-27T04:19:40.275Z,82.73
2018-04-27T04:20:40.205Z,82.59
2018-04-27T04:21:40.141Z,82.59
2018-04-27T04:22:40.075Z,83.64
2018-04-27T04:23:40.009Z,83.45
2018-04-27T04:24:39.943Z,83.07
2018-04-27T04:25:39.879Z,83.36
2018-04-27T04:26:39.819Z,83.45
2018-04-27T04:27:39.748Z,83.07
2018-04-27T04:28:39.681Z,83.07
2018-04-27T04:29:39.616Z,83.64
2018-04-27T04:30:39.551Z,83.16
2018-04-27T04:31:39.485Z,83.36
2018-04-27T04:32:39.416Z,83.54
2018-04-27T04:33:39.353Z,83.07
2018-04-27T04:34:39.288Z,83.26
2018-04-27T04:35:39.223Z,83.01
2018-04-27T04:36:39.158Z,83.01
2018-04-27T04:37:39.092Z,83.07
2018-04-27T04:38:39.026Z,83.01
2018-04-27T04:39:38.959Z,83.30
2018-04-27T04:40:38.895Z,83.01
2018-04-27T04:41:38.829Z,83.11
2018-04-27T04:42:38.764Z,82.54
2018-04-27T04:43:38.698Z,83.11
2018-04-27T04:44:38.631Z,83.20
2018-04-27T04:45:38.568Z,83.68
2018-04-27T04:46:38.503Z,83.49
2018-04-27T04:47:38.436Z,83.01
2018-04-27T04:48:38.368Z,83.30
2018-04-27T04:49:38.303Z,83.39
2018-04-27T04:50:38.240Z,83.11
2018-04-27T04:51:38.174Z,82.82
2018-04-27T04:52:38.189Z,82.64
2018-04-27T04:53:38.043Z,82.54
2018-04-27T04:54:37.976Z,82.64
2018-04-27T04:55:37.911Z,82.73
2018-04-27T04:56:37.848Z,82.26
2018-04-27T04:57:37.780Z,82.45
2018-04-27T04:58:37.714Z,82.45
2018-04-27T04:59:37.650Z,82.58
2018-04-27T05:00:37.584Z,82.96
2018-04-27T05:01:37.521Z,82.39
2018-04-27T05:02:37.456Z,81.73
2018-04-27T05:03:37.387Z,81.06
2018-04-27T05:04:37.321Z,80.58
2018-04-27T05:05:37.258Z,78.11
2018-04-27T05:06:37.192Z,78.50
2018-04-27T05:07:37.127Z,78.97
2018-04-27T05:08:37.060Z,79.35
2018-04-27T05:09:36.998Z,79.63
2018-04-27T05:10:37.014Z,78.97
2018-04-27T05:11:36.864Z,78.40
2018-04-27T05:12:36.798Z,78.30
2018-04-27T05:13:36.733Z,78.16
2018-04-27T05:14:36.668Z,78.53
2018-04-27T05:15:36.604Z,78.44
2018-04-27T05:16:36.538Z,78.25
2018-04-27T05:17:36.473Z,77.17
2018-04-27T05:18:36.406Z,77.20
2018-04-27T05:19:36.342Z,77.11
2018-04-27T05:20:36.276Z,76.06
2018-04-27T05:21:36.213Z,76.25
2018-04-27T05:22:36.149Z,76.06
2018-04-27T05:23:36.082Z,76.73
2018-04-27T05:24:36.015Z,76.63
2018-04-27T05:25:35.953Z,76.63
2018-04-27T05:26:35.885Z,75.30
2018-04-27T05:27:35.821Z,73.97
2018-04-27T05:28:35.756Z,73.59
2018-04-27T05:29:35.690Z,72.55
2018-04-27T05:30:35.625Z,72.67
2018-04-27T05:31:35.560Z,71.97
2018-04-27T05:32:35.496Z,71.72
2018-04-27T05:33:35.428Z,71.06
2018-04-27T05:34:35.364Z,70.39
2018-04-27T05:35:35.300Z,70.49
2018-04-27T05:36:35.241Z,69.63
2018-04-27T05:37:35.169Z,69.06
2018-04-27T05:38:35.105Z,68.49
2018-04-27T05:39:35.043Z,68.30
2018-04-27T05:40:35.018Z,68.24
2018-04-27T05:41:34.908Z,67.86
2018-04-27T05:42:34.844Z,67.00
2018-04-27T05:43:34.787Z,67.00
2018-04-27T05:44:34.716Z,67.19
2018-04-27T05:45:34.654Z,65.95
2018-04-27T05:46:34.582Z,65.00
2018-04-27T05:47:34.519Z,65.10
2018-04-27T05:48:34.460Z,65.77
2018-04-27T05:49:34.391Z,65.38
2018-04-27T05:50:34.325Z,64.34
2018-04-27T05:51:34.264Z,63.60
2018-04-27T05:52:34.196Z,62.94
2018-04-27T05:53:34.134Z,62.18
2018-04-27T05:54:34.069Z,62.37
2018-04-27T05:55:34.020Z,62.37
2018-04-27T05:56:33.933Z,61.99
2018-04-27T05:57:33.876Z,62.08
2018-04-27T05:58:33.810Z,60.66
2018-04-27T05:59:33.749Z,60.85
2018-04-27T06:00:33.679Z,61.13
2018-04-27T06:01:33.616Z,60.75
2018-04-27T06:02:33.550Z,60.66
2018-04-27T06:03:33.487Z,60.56
2018-04-27T06:04:33.434Z,60.56
2018-04-27T06:05:33.358Z,60.18
2018-04-27T06:06:33.293Z,60.59
2018-04-27T06:07:33.230Z,59.51
2018-04-27T06:08:33.165Z,58.87
2018-04-27T06:09:33.099Z,58.97
2018-04-27T06:10:33.038Z,59.26
2018-04-27T06:11:32.972Z,59.92
2018-04-27T06:12:32.908Z,59.26
2018-04-27T06:13:32.843Z,59.64
2018-04-27T06:14:32.779Z,58.78
2018-04-27T06:15:32.717Z,58.21
2018-04-27T06:16:32.651Z,58.87
2018-04-27T06:17:32.588Z,59.45
2018-04-27T06:18:32.521Z,58.87
2018-04-27T06:19:32.458Z,58.21
2018-04-27T06:20:32.388Z,58.87
2018-04-27T06:21:32.328Z,58.97
2018-04-27T06:22:32.266Z,59.54
2018-04-27T06:23:32.199Z,59.45
2018-04-27T06:24:32.135Z,58.78
2018-04-27T06:25:32.071Z,58.97
2018-04-27T06:26:32.008Z,58.87
2018-04-27T06:27:31.944Z,58.43
2018-04-27T06:28:31.879Z,58.33
2018-04-27T06:29:31.834Z,58.24
2018-04-27T06:30:31.751Z,58.24
2018-04-27T06:31:31.690Z,57.76
2018-04-27T06:32:31.624Z,58.43
2018-04-27T06:33:31.559Z,57.48
2018-04-27T06:34:31.492Z,57.48
2018-04-27T06:35:31.430Z,57.48
2018-04-27T06:36:31.366Z,57.28
2018-04-27T06:37:31.301Z,56.71
2018-04-27T06:38:31.244Z,57.48
2018-04-27T06:39:31.222Z,57.48
2018-04-27T06:40:31.118Z,57.03
2018-04-27T06:41:31.045Z,56.65
2018-04-27T06:42:30.983Z,56.93
2018-04-27T06:43:30.917Z,57.31
2018-04-27T06:44:30.855Z,57.41
2018-04-27T06:45:30.789Z,57.12
2018-04-27T06:46:30.729Z,57.12
2018-04-27T06:47:30.662Z,56.17
2018-04-27T06:48:30.598Z,56.26
2018-04-27T06:49:30.537Z,56.17
2018-04-27T06:50:30.475Z,56.55
2018-04-27T06:51:30.410Z,56.26
2018-04-27T06:52:30.347Z,56.26
2018-04-27T06:53:30.278Z,56.17
2018-04-27T06:54:30.215Z,56.29
2018-04-27T06:55:30.153Z,56.10
2018-04-27T06:56:30.087Z,55.60
2018-04-27T06:57:30.025Z,55.21
2018-04-27T06:58:29.960Z,55.72
2018-04-27T06:59:29.901Z,55.50
2018-04-27T07:00:29.831Z,54.96
2018-04-27T07:01:29.773Z,55.15
2018-04-27T07:02:29.706Z,55.05
2018-04-27T07:03:29.644Z,54.67
2018-04-27T07:04:29.578Z,54.19
2018-04-27T07:05:29.516Z,54.00
2018-04-27T07:06:29.450Z,54.10
2018-04-27T07:07:29.387Z,53.14
2018-04-27T07:08:29.326Z,53.14
2018-04-27T07:09:29.260Z,53.43
2018-04-27T07:10:29.201Z,52.31
2018-04-27T07:11:29.143Z,52.59
2018-04-27T07:12:29.070Z,53.08
2018-04-27T07:13:29.005Z,52.12
2018-04-27T07:14:28.943Z,51.83
2018-04-27T07:15:28.884Z,52.31
2018-04-27T07:16:28.816Z,52.50
2018-04-27T07:17:28.754Z,51.95
2018-04-27T07:18:28.689Z,52.62
2018-04-27T07:19:28.628Z,52.72
2018-04-27T07:20:28.567Z,52.72
2018-04-27T07:21:28.501Z,53.00
2018-04-27T07:22:28.439Z,53.10
2018-04-27T07:23:28.389Z,52.59
2018-04-27T07:24:28.318Z,53.27
2018-04-27T07:25:28.268Z,53.65
2018-04-27T07:26:28.186Z,53.65
2018-04-27T07:27:28.121Z,53.67
2018-04-27T07:28:28.056Z,53.77
2018-04-27T07:29:27.994Z,53.86
2018-04-27T07:30:27.933Z,54.72
2018-04-27T07:31:27.869Z,53.96
2018-04-27T07:32:27.815Z,54.06
2018-04-27T07:33:27.754Z,53.77
2018-04-27T07:34:27.682Z,53.13
2018-04-27T07:35:27.635Z,53.41
2018-04-27T07:36:27.553Z,53.22
2018-04-27T07:37:27.498Z,53.32
2018-04-27T07:38:27.428Z,53.32
2018-04-27T07:39:27.376Z,53.41
2018-04-27T07:40:27.300Z,53.32
2018-04-27T07:41:27.239Z,53.51
2018-04-27T07:42:27.227Z,53.51
2018-04-27T07:43:27.112Z,53.70
2018-04-27T07:44:27.049Z,53.61
2018-04-27T07:45:26.988Z,53.51
2018-04-27T07:46:26.925Z,53.89
2018-04-27T07:47:26.862Z,53.99
2018-04-27T07:48:26.798Z,54.37
2018-04-27T07:49:26.738Z,54.97
2018-04-27T07:50:26.672Z,54.59
2018-04-27T07:51:26.617Z,54.88
2018-04-27T07:52:26.547Z,54.39
2018-04-27T07:53:26.484Z,54.49
2018-04-27T07:54:26.426Z,54.97
2018-04-27T07:55:26.393Z,53.53
2018-04-27T07:56:26.295Z,53.63
2018-04-27T07:57:26.234Z,53.25
2018-04-27T07:58:26.172Z,53.18
2018-04-27T07:59:26.135Z,52.70
2018-04-27T08:00:26.047Z,52.32
2018-04-27T08:01:25.985Z,52.99
2018-04-27T08:02:25.945Z,53.18
2018-04-27T08:03:25.862Z,52.70
2018-04-27T08:04:25.795Z,53.37
2018-04-27T08:05:25.733Z,53.18
2018-04-27T08:06:25.671Z,53.28
2018-04-27T08:07:25.611Z,52.42
2018-04-27T08:08:25.550Z,52.80
2018-04-27T08:09:25.488Z,52.99
2018-04-27T08:10:25.424Z,52.22
2018-04-27T08:11:25.461Z,52.22
2018-04-27T08:12:25.299Z,52.80
2018-04-27T08:13:25.238Z,52.32
2018-04-27T08:14:25.175Z,51.75
2018-04-27T08:15:25.114Z,51.87
2018-04-27T08:16:25.051Z,52.25
2018-04-27T08:17:24.990Z,51.68
2018-04-27T08:18:24.926Z,51.97
2018-04-27T08:19:24.863Z,51.93
2018-04-27T08:20:24.806Z,51.56
2018-04-27T08:21:24.741Z,52.70
2018-04-27T08:22:24.680Z,53.56
2018-04-27T08:23:24.619Z,53.56
2018-04-27T08:24:24.554Z,53.56
2018-04-27T08:25:24.493Z,53.56
2018-04-27T08:26:24.431Z,53.37
2018-04-27T08:27:24.369Z,53.56
2018-04-27T08:28:24.314Z,53.37
2018-04-27T08:29:24.245Z,52.22
2018-04-27T08:30:24.184Z,51.68
2018-04-27T08:31:24.132Z,51.77
2018-04-27T08:32:24.056Z,51.20
2018-04-27T08:33:23.997Z,51.22
2018-04-27T08:34:23.936Z,51.03
2018-04-27T08:35:23.873Z,50.93
2018-04-27T08:36:23.812Z,51.61
2018-04-27T08:37:23.751Z,51.32
2018-04-27T08:38:23.687Z,50.74
2018-04-27T08:39:23.625Z,50.84
2018-04-27T08:40:23.566Z,51.03
2018-04-27T08:41:23.504Z,51.13
2018-04-27T08:42:23.446Z,51.51
2018-04-27T08:43:23.388Z,51.20
2018-04-27T08:44:23.319Z,51.39
2018-04-27T08:45:23.257Z,51.22
2018-04-27T08:46:23.197Z,51.22
2018-04-27T08:47:23.135Z,51.70
2018-04-27T08:48:23.075Z,50.74
2018-04-27T08:49:23.011Z,49.88
2018-04-27T08:50:22.990Z,50.17
2018-04-27T08:51:22.889Z,50.07
2018-04-27T08:52:22.827Z,49.98
2018-04-27T08:53:22.765Z,50.26
2018-04-27T08:54:22.704Z,49.79
2018-04-27T08:55:22.645Z,50.07
2018-04-27T08:56:22.581Z,50.46
2018-04-27T08:57:22.520Z,50.26
2018-04-27T08:58:22.469Z,50.07
2018-04-27T08:59:22.398Z,49.69
2018-04-27T09:00:22.337Z,49.71
2018-04-27T09:01:22.276Z,49.05
2018-04-27T09:02:22.214Z,48.18
2018-04-27T09:03:22.153Z,48.28
2018-04-27T09:04:22.091Z,48.28
2018-04-27T09:05:22.031Z,48.18
2018-04-27T09:06:22.008Z,47.80
2018-04-27T09:07:21.912Z,48.28
2018-04-27T09:08:21.847Z,48.28
2018-04-27T09:09:21.788Z,48.47
2018-04-27T09:10:21.727Z,48.66
2018-04-27T09:11:21.667Z,48.66
2018-04-27T09:12:21.605Z,48.47
2018-04-27T09:13:21.556Z,48.18
2018-04-27T09:14:21.484Z,46.77
2018-04-27T09:15:21.427Z,46.39
2018-04-27T09:16:21.368Z,45.81
2018-04-27T09:17:21.298Z,46.29
2018-04-27T09:18:21.238Z,46.00
2018-04-27T09:19:21.179Z,46.39
2018-04-27T09:20:21.118Z,46.50
2018-04-27T09:21:21.058Z,46.31
2018-04-27T09:22:20.997Z,46.41
2018-04-27T09:23:20.934Z,46.03
2018-04-27T09:24:20.874Z,46.12
2018-04-27T09:25:20.817Z,46.31
2018-04-27T09:26:20.763Z,45.74
2018-04-27T09:27:20.691Z,45.09
2018-04-27T09:28:20.631Z,44.03
2018-04-27T09:29:20.569Z,43.19
2018-04-27T09:30:20.512Z,42.90
2018-04-27T09:31:20.450Z,42.61
2018-04-27T09:32:20.464Z,42.52
2018-04-27T09:33:20.329Z,42.71
2018-04-27T09:34:20.267Z,43.38
2018-04-27T09:35:20.207Z,42.81
2018-04-27T09:36:20.147Z,42.33
2018-04-27T09:37:20.091Z,42.16
2018-04-27T09:38:20.030Z,41.58
2018-04-27T09:39:19.966Z,42.44
2018-04-27T09:40:19.908Z,42.43
2018-04-27T09:41:19.848Z,42.52
2018-04-27T09:42:19.789Z,42.52
2018-04-27T09:43:19.727Z,43.57
2018-04-27T09:44:19.666Z,43.96
2018-04-27T09:45:19.606Z,43.96
2018-04-27T09:46:19.545Z,45.01
2018-04-27T09:47:19.955Z,44.06
2018-04-27T09:48:19.427Z,43.12
2018-04-27T09:49:19.365Z,41.77
2018-04-27T09:50:19.305Z,41.60
2018-04-27T09:51:19.246Z,41.02
2018-04-27T09:52:19.189Z,41.12
2018-04-27T09:53:19.139Z,41.02
2018-04-27T09:54:19.070Z,41.31
2018-04-27T09:55:19.008Z,40.76
2018-04-27T09:56:18.959Z,40.47
2018-04-27T09:57:18.887Z,40.37
2018-04-27T09:58:18.829Z,40.28
2018-04-27T09:59:18.769Z,39.91
2018-04-27T10:00:18.741Z,39.16
2018-04-27T10:01:18.648Z,38.31
2018-04-27T10:02:18.594Z,36.15
2018-04-27T10:03:18.536Z,34.72
2018-04-27T10:04:18.474Z,32.82
2018-04-27T10:05:18.416Z,30.90
2018-04-27T10:06:18.359Z,31.10
2018-04-27T10:07:18.300Z,30.99
2018-04-27T10:08:18.242Z,31.20
2018-04-27T10:09:18.186Z,30.15
2018-04-27T10:10:18.130Z,29.47
2018-04-27T10:11:18.073Z,28.69
2018-04-27T10:12:18.021Z,29.36
2018-04-27T10:13:17.960Z,30.04
2018-04-27T10:14:17.905Z,30.14
2018-04-27T10:15:17.848Z,29.94
2018-04-27T10:16:17.793Z,29.85
2018-04-27T10:17:17.738Z,29.56
2018-04-27T10:18:17.684Z,29.09
2018-04-27T10:19:17.628Z,28.98
2018-04-27T10:20:17.571Z,29.19
2018-04-27T10:21:17.520Z,28.61
2018-04-27T10:22:17.463Z,28.70
2018-04-27T10:23:17.409Z,28.81
2018-04-27T10:24:17.352Z,28.33
2018-04-27T10:25:17.294Z,28.91
2018-04-27T10:26:17.242Z,29.85
2018-04-27T10:27:17.187Z,29.94
2018-04-27T10:28:17.132Z,30.12
2018-04-27T10:29:17.078Z,30.59
2018-04-27T10:30:17.026Z,31.73
2018-04-27T10:31:16.969Z,31.94
2018-04-27T10:32:16.915Z,31.96
2018-04-27T10:33:16.862Z,31.37
2018-04-27T10:34:16.804Z,31.48
2018-04-27T10:35:16.749Z,31.10
2018-04-27T10:36:16.698Z,30.70
2018-04-27T10:37:16.645Z,31.27
2018-04-27T10:38:16.587Z,32.43
2018-04-27T10:39:16.533Z,32.23
2018-04-27T10:40:16.477Z,32.24
2018-04-27T10:41:16.423Z,32.31
2018-04-27T10:42:16.367Z,33.37
2018-04-27T10:43:16.314Z,33.17
2018-04-27T10:44:16.255Z,33.36
2018-04-27T10:45:16.201Z,33.86
2018-04-27T10:46:16.147Z,33.76
2018-04-27T10:47:16.164Z,33.58
2018-04-27T10:48:16.041Z,32.14
2018-04-27T10:49:15.982Z,31.67
2018-04-27T10:50:15.984Z,31.20
2018-04-27T10:51:15.870Z,30.33
2018-04-27T10:52:15.831Z,30.70
2018-04-27T10:53:15.763Z,30.98
2018-04-27T10:54:15.706Z,32.21
2018-04-27T10:55:15.652Z,32.70
2018-04-27T10:56:15.594Z,32.89
2018-04-27T10:57:15.540Z,33.47
2018-04-27T10:58:15.487Z,33.86
2018-04-27T10:59:15.433Z,33.84
2018-04-27T11:00:15.375Z,33.74
2018-04-27T11:01:15.320Z,33.84
2018-04-27T11:02:15.265Z,33.95
2018-04-27T11:03:15.212Z,33.18
2018-04-27T11:04:15.156Z,33.09
2018-04-27T11:05:15.099Z,33.10
2018-04-27T11:06:15.043Z,32.31
2018-04-27T11:07:14.989Z,33.58
2018-04-27T11:08:14.931Z,33.07
2018-04-27T11:09:14.875Z,33.55
2018-04-27T11:10:14.821Z,33.17
2018-04-27T11:11:14.772Z,33.53
2018-04-27T11:12:14.711Z,33.44
2018-04-27T11:13:14.655Z,33.33
2018-04-27T11:14:14.599Z,34.66
2018-04-27T11:15:14.544Z,35.14
2018-04-27T11:16:14.503Z,36.10
2018-04-27T11:17:14.431Z,36.56
2018-04-27T11:18:14.376Z,37.62
2018-04-27T11:19:14.318Z,37.99
2018-04-27T11:20:14.265Z,38.47
2018-04-27T11:21:14.206Z,38.47
2018-04-27T11:22:14.148Z,38.18
2018-04-27T11:23:14.092Z,38.37
2018-04-27T11:24:14.033Z,38.56
2018-04-27T11:25:13.977Z,38.93
2018-04-27T11:26:13.921Z,39.41
2018-04-27T11:27:13.866Z,39.41
2018-04-27T11:28:13.805Z,38.84
2018-04-27T11:29:13.759Z,40.08
2018-04-27T11:30:13.693Z,40.37
2018-04-27T11:31:13.635Z,40.18
2018-04-27T11:32:13.577Z,40.73
2018-04-27T11:33:13.519Z,40.55
2018-04-27T11:34:13.461Z,41.14
2018-04-27T11:35:13.483Z,41.02
2018-04-27T11:36:13.346Z,41.14
2018-04-27T11:37:13.288Z,40.28
2018-04-27T11:38:13.229Z,40.37
2018-04-27T11:39:13.173Z,40.25
2018-04-27T11:40:13.114Z,40.08
2018-04-27T11:41:13.066Z,40.35
2018-04-27T11:42:12.998Z,39.99
2018-04-27T11:43:12.943Z,40.66
2018-04-27T11:44:12.877Z,40.18
2018-04-27T11:45:12.822Z,40.66
2018-04-27T11:46:12.761Z,40.37
2018-04-27T11:47:12.705Z,40.35
2018-04-27T11:48:12.642Z,40.35
2018-04-27T11:49:12.589Z,39.97
2018-04-27T11:50:12.527Z,40.55
2018-04-27T11:51:12.471Z,41.31
2018-04-27T11:52:12.415Z,40.45
2018-04-27T11:53:12.372Z,40.64
2018-04-27T11:54:12.295Z,40.55
2018-04-27T11:55:12.238Z,40.37
2018-04-27T11:56:12.178Z,40.28
2018-04-27T11:57:12.119Z,40.66
2018-04-27T11:58:12.059Z,39.79
2018-04-27T11:59:12.002Z,40.85
2018-04-27T12:00:11.943Z,39.99
2018-04-27T12:01:11.884Z,40.37
2018-04-27T12:02:11.823Z,40.18
2018-04-27T12:03:11.767Z,39.51
2018-04-27T12:04:11.708Z,38.84
2018-04-27T12:05:11.648Z,39.79
2018-04-27T12:06:11.591Z,40.16
2018-04-27T12:07:11.531Z,40.55
2018-04-27T12:08:11.470Z,40.55
2018-04-27T12:09:11.415Z,40.18
2018-04-27T12:10:11.352Z,40.37
2018-04-27T12:11:11.295Z,38.84
2018-04-27T12:12:11.236Z,39.51
2018-04-27T12:13:11.176Z,39.61
2018-04-27T12:14:11.119Z,39.31
2018-04-27T12:15:11.071Z,38.54
2018-04-27T12:16:11.003Z,38.93
2018-04-27T12:17:10.942Z,37.79
2018-04-27T12:18:10.882Z,38.37
2018-04-27T12:19:10.822Z,38.18
2018-04-27T12:20:10.763Z,37.99
2018-04-27T12:21:10.706Z,38.56
2018-04-27T12:22:10.646Z,38.56
2018-04-27T12:23:10.587Z,37.99
2018-04-27T12:24:10.527Z,38.18
2018-04-27T12:25:10.473Z,37.79
2018-04-27T12:26:10.409Z,38.37
2018-04-27T12:27:10.351Z,38.18
2018-04-27T12:28:10.293Z,37.81
2018-04-27T12:29:10.233Z,37.22
2018-04-27T12:30:10.175Z,37.79
2018-04-27T12:31:10.119Z,38.66
2018-04-27T12:32:10.058Z,38.47
2018-04-27T12:33:09.996Z,39.14
2018-04-27T12:34:09.941Z,38.95
2018-04-27T12:35:09.879Z,39.24
2018-04-27T12:36:09.821Z,38.76
2018-04-27T12:37:09.761Z,38.47
2018-04-27T12:38:09.705Z,39.24
2018-04-27T12:39:09.646Z,38.66
2018-04-27T12:40:09.586Z,37.99
2018-04-27T12:41:09.527Z,38.66
2018-04-27T12:42:09.469Z,38.29
2018-04-27T12:43:09.414Z,38.20
2018-04-27T12:44:09.350Z,38.01
2018-04-27T12:45:09.302Z,38.78
2018-04-27T12:46:09.237Z,38.47
2018-04-27T12:47:09.175Z,38.28
2018-04-27T12:48:09.116Z,38.95
2018-04-27T12:49:09.051Z,39.14
2018-04-27T12:50:08.998Z,39.04
2018-04-27T12:51:08.940Z,40.01
2018-04-27T12:52:08.969Z,39.33